sensor_id;sensor_type;location;lat;lon;timestamp;pressure;altitude;pressure_sealevel;temperature;humidity
3524;BME280;1776;53.330;11.498;2023-04-24T00:02:24;25492.44;;;-147.39;50.40
3524;BME280;1776;53.330;11.498;2023-04-24T00:04:50;25490.41;;;-147.39;50.18
3524;BME280;1776;53.330;11.498;2023-04-24T00:07:16;25502.63;;;-147.39;50.22
3524;BME280;1776;53.330;11.498;2023-04-24T00:09:45;25512.78;;;-147.39;50.68
3524;BME280;1776;53.330;11.498;2023-04-24T00:12:10;25492.44;;;-147.39;50.35
3524;BME280;1776;53.330;11.498;2023-04-24T00:14:35;25486.34;;;-147.39;50.60
3524;BME280;1776;53.330;11.498;2023-04-24T00:17:01;25508.72;;;-147.39;50.21
3524;BME280;1776;53.330;11.498;2023-04-24T00:19:27;25496.50;;;-147.39;50.57
3524;BME280;1776;53.330;11.498;2023-04-24T00:21:53;25478.22;;;-147.39;50.77
3524;BME280;1776;53.330;11.498;2023-04-24T00:24:19;25484.31;;;-147.39;50.67
3524;BME280;1776;53.330;11.498;2023-04-24T00:26:44;25466.00;;;-147.39;50.70
3524;BME280;1776;53.330;11.498;2023-04-24T00:29:09;25504.66;;;-147.39;51.00
3524;BME280;1776;53.330;11.498;2023-04-24T00:31:35;25455.84;;;-147.39;51.07
3524;BME280;1776;53.330;11.498;2023-04-24T00:34:03;25480.25;;;-147.39;51.35
3524;BME280;1776;53.330;11.498;2023-04-24T00:36:30;25447.69;;;-147.39;51.02
3524;BME280;1776;53.330;11.498;2023-04-24T00:38:56;25457.88;;;-147.39;51.15
3524;BME280;1776;53.330;11.498;2023-04-24T00:41:21;25476.16;;;-147.39;51.00
3524;BME280;1776;53.330;11.498;2023-04-24T00:43:47;25463.97;;;-147.39;51.22
3524;BME280;1776;53.330;11.498;2023-04-24T00:46:12;25474.13;;;-147.39;51.02
3524;BME280;1776;53.330;11.498;2023-04-24T00:48:39;25470.06;;;-147.39;51.32
3524;BME280;1776;53.330;11.498;2023-04-24T00:51:05;25482.28;;;-147.39;51.47
3524;BME280;1776;53.330;11.498;2023-04-24T00:53:30;25388.72;;;-147.39;53.26
3524;BME280;1776;53.330;11.498;2023-04-24T00:55:56;25284.97;;;-147.39;54.73
3524;BME280;1776;53.330;11.498;2023-04-24T00:58:22;25201.59;;;-147.39;55.07
3524;BME280;1776;53.330;11.498;2023-04-24T01:00:48;25195.50;;;-147.39;55.40
3524;BME280;1776;53.330;11.498;2023-04-24T01:03:14;25057.19;;;-147.39;56.26
3524;BME280;1776;53.330;11.498;2023-04-24T01:05:40;25071.44;;;-147.39;55.82
3524;BME280;1776;53.330;11.498;2023-04-24T01:08:06;25071.44;;;-147.39;55.26
3524;BME280;1776;53.330;11.498;2023-04-24T01:10:32;25091.78;;;-147.39;55.01
3524;BME280;1776;53.330;11.498;2023-04-24T01:12:58;25101.94;;;-147.39;54.92
3524;BME280;1776;53.330;11.498;2023-04-24T01:15:24;25124.31;;;-147.39;54.60
3524;BME280;1776;53.330;11.498;2023-04-24T01:17:49;25124.31;;;-147.39;54.73
3524;BME280;1776;53.330;11.498;2023-04-24T01:20:15;25124.31;;;-147.39;54.44
3524;BME280;1776;53.330;11.498;2023-04-24T01:22:42;25124.31;;;-147.39;54.21
3524;BME280;1776;53.330;11.498;2023-04-24T01:25:07;25150.75;;;-147.39;53.96
3524;BME280;1776;53.330;11.498;2023-04-24T01:27:33;25156.84;;;-147.39;53.76
3524;BME280;1776;53.330;11.498;2023-04-24T01:29:58;25160.91;;;-147.39;53.79
3524;BME280;1776;53.330;11.498;2023-04-24T01:32:25;25223.97;;;-147.39;53.36
3524;BME280;1776;53.330;11.498;2023-04-24T01:34:50;25207.69;;;-147.39;53.51
3524;BME280;1776;53.330;11.498;2023-04-24T01:37:16;25199.56;;;-147.39;53.17
3524;BME280;1776;53.330;11.498;2023-04-24T01:39:42;25217.88;;;-147.39;53.45
3524;BME280;1776;53.330;11.498;2023-04-24T01:42:08;25234.13;;;-147.39;53.36
3524;BME280;1776;53.330;11.498;2023-04-24T01:44:33;25207.69;;;-147.39;53.64
3524;BME280;1776;53.330;11.498;2023-04-24T01:47:00;25232.09;;;-147.39;53.60
3524;BME280;1776;53.330;11.498;2023-04-24T01:49:26;25228.03;;;-147.39;53.53
3524;BME280;1776;53.330;11.498;2023-04-24T01:51:51;25203.63;;;-147.39;53.24
3524;BME280;1776;53.330;11.498;2023-04-24T01:54:17;24967.72;;;-147.39;53.25
3524;BME280;1776;53.330;11.498;2023-04-24T01:56:43;25248.38;;;-147.39;52.87
3524;BME280;1776;53.330;11.498;2023-04-24T01:59:12;24986.00;;;-147.39;53.19
3524;BME280;1776;53.330;11.498;2023-04-24T02:01:38;25211.75;;;-147.39;53.07
3524;BME280;1776;53.330;11.498;2023-04-24T02:04:04;25254.47;;;-147.39;53.25
3524;BME280;1776;53.330;11.498;2023-04-24T02:06:30;25213.78;;;-147.39;53.46
3524;BME280;1776;53.330;11.498;2023-04-24T02:08:57;25173.13;;;-147.39;53.47
3524;BME280;1776;53.330;11.498;2023-04-24T02:11:22;25213.78;;;-147.39;53.28
3524;BME280;1776;53.330;11.498;2023-04-24T02:13:47;25185.31;;;-147.39;53.98
3524;BME280;1776;53.330;11.498;2023-04-24T02:16:13;25191.44;;;-147.39;54.10
3524;BME280;1776;53.330;11.498;2023-04-24T02:18:38;25230.06;;;-147.39;54.05
3524;BME280;1776;53.330;11.498;2023-04-24T02:21:03;25173.13;;;-147.39;54.08
3524;BME280;1776;53.330;11.498;2023-04-24T02:23:29;25158.88;;;-147.39;54.22
3524;BME280;1776;53.330;11.498;2023-04-24T02:25:54;25187.34;;;-147.39;54.33
3524;BME280;1776;53.330;11.498;2023-04-24T02:28:19;25187.34;;;-147.39;54.49
3524;BME280;1776;53.330;11.498;2023-04-24T02:30:45;25175.16;;;-147.39;54.37
3524;BME280;1776;53.330;11.498;2023-04-24T02:33:11;25203.63;;;-147.39;54.54
3524;BME280;1776;53.330;11.498;2023-04-24T02:35:37;25173.13;;;-147.39;54.15
3524;BME280;1776;53.330;11.498;2023-04-24T02:38:02;25175.16;;;-147.39;54.71
3524;BME280;1776;53.330;11.498;2023-04-24T02:40:28;25183.28;;;-147.39;54.50
3524;BME280;1776;53.330;11.498;2023-04-24T02:42:53;25138.53;;;-147.39;55.03
3524;BME280;1776;53.330;11.498;2023-04-24T02:45:18;25167.03;;;-147.39;54.94
3524;BME280;1776;53.330;11.498;2023-04-24T02:47:44;25158.88;;;-147.39;55.45
3524;BME280;1776;53.330;11.498;2023-04-24T02:50:09;25144.66;;;-147.39;55.93
3524;BME280;1776;53.330;11.498;2023-04-24T02:52:35;25114.13;;;-147.39;55.99
3524;BME280;1776;53.330;11.498;2023-04-24T02:55:00;25126.34;;;-147.39;56.22
3524;BME280;1776;53.330;11.498;2023-04-24T02:57:25;25073.47;;;-147.39;56.42
3524;BME280;1776;53.330;11.498;2023-04-24T02:59:50;25075.50;;;-147.39;56.48
3524;BME280;1776;53.330;11.498;2023-04-24T03:02:16;25112.09;;;-147.39;56.86
3524;BME280;1776;53.330;11.498;2023-04-24T03:04:41;25087.69;;;-147.39;56.92
3524;BME280;1776;53.330;11.498;2023-04-24T03:07:10;25103.97;;;-147.39;56.55
3524;BME280;1776;53.330;11.498;2023-04-24T03:09:35;25075.50;;;-147.39;56.84
3524;BME280;1776;53.330;11.498;2023-04-24T03:12:01;25075.50;;;-147.39;56.82
3524;BME280;1776;53.330;11.498;2023-04-24T03:14:26;25045.00;;;-147.39;57.23
3524;BME280;1776;53.330;11.498;2023-04-24T03:16:51;25073.47;;;-147.39;57.46
3524;BME280;1776;53.330;11.498;2023-04-24T03:19:17;25036.84;;;-147.39;57.76
3524;BME280;1776;53.330;11.498;2023-04-24T03:21:44;25016.53;;;-147.39;58.18
3524;BME280;1776;53.330;11.498;2023-04-24T03:24:09;25018.56;;;-147.39;58.16
3524;BME280;1776;53.330;11.498;2023-04-24T03:26:34;25012.44;;;-147.39;58.11
3524;BME280;1776;53.330;11.498;2023-04-24T03:29:00;25030.75;;;-147.39;58.25
3524;BME280;1776;53.330;11.498;2023-04-24T03:31:25;25002.28;;;-147.39;58.21
3524;BME280;1776;53.330;11.498;2023-04-24T03:33:51;25000.25;;;-147.39;57.89
3524;BME280;1776;53.330;11.498;2023-04-24T03:36:16;25124.31;;;-147.39;58.42
3524;BME280;1776;53.330;11.498;2023-04-24T03:38:41;24969.75;;;-147.39;58.66
3524;BME280;1776;53.330;11.498;2023-04-24T03:41:07;25016.53;;;-147.39;58.48
3524;BME280;1776;53.330;11.498;2023-04-24T03:43:33;24994.16;;;-147.39;58.50
3524;BME280;1776;53.330;11.498;2023-04-24T03:45:59;24998.22;;;-147.39;58.82
3524;BME280;1776;53.330;11.498;2023-04-24T03:48:25;24955.50;;;-147.39;59.29
3524;BME280;1776;53.330;11.498;2023-04-24T03:50:50;24929.06;;;-147.39;59.31
3524;BME280;1776;53.330;11.498;2023-04-24T03:53:15;24955.50;;;-147.39;59.08
3524;BME280;1776;53.330;11.498;2023-04-24T03:55:40;24937.19;;;-147.39;59.29
3524;BME280;1776;53.330;11.498;2023-04-24T03:58:06;24922.97;;;-147.39;59.11
3524;BME280;1776;53.330;11.498;2023-04-24T04:00:31;24890.44;;;-147.39;60.14
3524;BME280;1776;53.330;11.498;2023-04-24T04:02:57;24918.91;;;-147.39;60.19
3524;BME280;1776;53.330;11.498;2023-04-24T04:05:22;24859.94;;;-147.39;60.69
3524;BME280;1776;53.330;11.498;2023-04-24T04:07:47;24884.31;;;-147.39;61.52
3524;BME280;1776;53.330;11.498;2023-04-24T04:10:13;24849.75;;;-147.39;61.84
3524;BME280;1776;53.330;11.498;2023-04-24T04:12:38;24813.16;;;-147.39;62.10
3524;BME280;1776;53.330;11.498;2023-04-24T04:15:03;24833.50;;;-147.39;61.70
3524;BME280;1776;53.330;11.498;2023-04-24T04:17:31;24825.34;;;-147.39;62.10
3524;BME280;1776;53.330;11.498;2023-04-24T04:19:56;24796.88;;;-147.39;61.89
3524;BME280;1776;53.330;11.498;2023-04-24T04:22:22;24796.88;;;-147.39;61.44
3524;BME280;1776;53.330;11.498;2023-04-24T04:24:47;24833.50;;;-147.39;61.27
3524;BME280;1776;53.330;11.498;2023-04-24T04:27:12;24841.63;;;-147.39;61.13
3524;BME280;1776;53.330;11.498;2023-04-24T04:29:38;24880.25;;;-147.39;60.89
3524;BME280;1776;53.330;11.498;2023-04-24T04:32:03;24878.22;;;-147.39;60.67
3524;BME280;1776;53.330;11.498;2023-04-24T04:34:28;24831.44;;;-147.39;60.59
3524;BME280;1776;53.330;11.498;2023-04-24T04:36:54;24904.66;;;-147.39;60.35
3524;BME280;1776;53.330;11.498;2023-04-24T04:39:20;24849.75;;;-147.39;60.12
3524;BME280;1776;53.330;11.498;2023-04-24T04:41:45;24843.66;;;-147.39;59.95
3524;BME280;1776;53.330;11.498;2023-04-24T04:44:13;24861.97;;;-147.39;59.82
3524;BME280;1776;53.330;11.498;2023-04-24T04:46:40;24886.38;;;-147.39;59.84
3524;BME280;1776;53.330;11.498;2023-04-24T04:49:06;24900.59;;;-147.39;59.50
3524;BME280;1776;53.330;11.498;2023-04-24T04:51:33;24892.47;;;-147.39;59.04
3524;BME280;1776;53.330;11.498;2023-04-24T04:53:58;24933.13;;;-147.39;59.08
3524;BME280;1776;53.330;11.498;2023-04-24T04:56:24;24888.41;;;-147.39;58.67
3524;BME280;1776;53.330;11.498;2023-04-24T04:58:49;24914.84;;;-147.39;58.47
3524;BME280;1776;53.330;11.498;2023-04-24T05:01:15;24874.16;;;-147.39;59.00
3524;BME280;1776;53.330;11.498;2023-04-24T05:03:40;24882.28;;;-147.39;58.89
3524;BME280;1776;53.330;11.498;2023-04-24T05:06:06;24943.31;;;-147.39;58.82
3524;BME280;1776;53.330;11.498;2023-04-24T05:08:31;24898.56;;;-147.39;58.83
3524;BME280;1776;53.330;11.498;2023-04-24T05:10:56;24896.53;;;-147.39;59.39
3524;BME280;1776;53.330;11.498;2023-04-24T05:13:22;24882.28;;;-147.39;59.87
3524;BME280;1776;53.330;11.498;2023-04-24T05:15:47;24866.03;;;-147.39;60.12
3524;BME280;1776;53.330;11.498;2023-04-24T05:18:12;24841.63;;;-147.39;60.59
3524;BME280;1776;53.330;11.498;2023-04-24T05:20:37;24864.00;;;-147.39;60.50
3524;BME280;1776;53.330;11.498;2023-04-24T05:23:03;24853.81;;;-147.39;60.72
3524;BME280;1776;53.330;11.498;2023-04-24T05:25:28;24872.13;;;-147.39;60.70
3524;BME280;1776;53.330;11.498;2023-04-24T05:27:53;24833.50;;;-147.39;60.65
3524;BME280;1776;53.330;11.498;2023-04-24T05:30:19;24896.53;;;-147.39;60.34
3524;BME280;1776;53.330;11.498;2023-04-24T05:32:45;24886.38;;;-147.39;61.04
3524;BME280;1776;53.330;11.498;2023-04-24T05:35:10;24896.53;;;-147.39;60.54
3524;BME280;1776;53.330;11.498;2023-04-24T05:37:35;24857.88;;;-147.39;60.48
3524;BME280;1776;53.330;11.498;2023-04-24T05:40:00;24847.72;;;-147.39;60.38
3524;BME280;1776;53.330;11.498;2023-04-24T05:42:26;24819.25;;;-147.39;60.57
3524;BME280;1776;53.330;11.498;2023-04-24T05:44:51;24841.63;;;-147.39;60.67
3524;BME280;1776;53.330;11.498;2023-04-24T05:47:18;24833.50;;;-147.39;61.19
3524;BME280;1776;53.330;11.498;2023-04-24T05:49:44;24807.03;;;-147.39;61.40
3524;BME280;1776;53.330;11.498;2023-04-24T05:52:09;24841.63;;;-147.39;61.37
3524;BME280;1776;53.330;11.498;2023-04-24T05:54:34;24788.75;;;-147.39;61.57
3524;BME280;1776;53.330;11.498;2023-04-24T05:57:00;24813.16;;;-147.39;61.58
3524;BME280;1776;53.330;11.498;2023-04-24T05:59:29;24813.16;;;-147.39;61.83
3524;BME280;1776;53.330;11.498;2023-04-24T06:01:54;24774.50;;;-147.39;61.92
3524;BME280;1776;53.330;11.498;2023-04-24T06:04:20;24847.72;;;-147.39;61.80
3524;BME280;1776;53.330;11.498;2023-04-24T06:06:45;24823.31;;;-147.39;61.71
3524;BME280;1776;53.330;11.498;2023-04-24T06:09:10;24819.25;;;-147.39;61.64
3524;BME280;1776;53.330;11.498;2023-04-24T06:11:36;24811.13;;;-147.39;61.89
3524;BME280;1776;53.330;11.498;2023-04-24T06:14:02;24768.41;;;-147.39;62.04
3524;BME280;1776;53.330;11.498;2023-04-24T06:16:27;24827.38;;;-147.39;62.04
3524;BME280;1776;53.330;11.498;2023-04-24T06:18:52;24851.78;;;-147.39;62.00
3524;BME280;1776;53.330;11.498;2023-04-24T06:21:17;24796.88;;;-147.39;61.94
3524;BME280;1776;53.330;11.498;2023-04-24T06:23:43;24800.94;;;-147.39;62.70
3524;BME280;1776;53.330;11.498;2023-04-24T06:26:08;24864.00;;;-147.39;62.15
3524;BME280;1776;53.330;11.498;2023-04-24T06:28:33;24823.31;;;-147.39;61.79
3524;BME280;1776;53.330;11.498;2023-04-24T06:30:59;24817.22;;;-147.39;61.43
3524;BME280;1776;53.330;11.498;2023-04-24T06:33:24;24855.84;;;-147.39;61.60
3524;BME280;1776;53.330;11.498;2023-04-24T06:35:49;24859.94;;;-147.39;61.80
3524;BME280;1776;53.330;11.498;2023-04-24T06:38:15;24827.38;;;-147.39;61.06
3524;BME280;1776;53.330;11.498;2023-04-24T06:40:41;24833.50;;;-147.39;61.30
3524;BME280;1776;53.330;11.498;2023-04-24T06:43:06;24829.41;;;-147.39;61.06
3524;BME280;1776;53.330;11.498;2023-04-24T06:45:31;24841.63;;;-147.39;60.54
3524;BME280;1776;53.330;11.498;2023-04-24T06:47:56;24805.00;;;-147.39;60.53
3524;BME280;1776;53.330;11.498;2023-04-24T06:50:22;24859.94;;;-147.39;60.02
3524;BME280;1776;53.330;11.498;2023-04-24T06:52:47;24833.50;;;-147.39;59.63
3524;BME280;1776;53.330;11.498;2023-04-24T06:55:13;24861.97;;;-147.39;59.75
3524;BME280;1776;53.330;11.498;2023-04-24T06:57:40;24853.81;;;-147.39;59.65
3524;BME280;1776;53.330;11.498;2023-04-24T07:00:06;24870.09;;;-147.39;59.58
3524;BME280;1776;53.330;11.498;2023-04-24T07:02:32;24888.41;;;-147.39;59.90
3524;BME280;1776;53.330;11.498;2023-04-24T07:04:57;24821.28;;;-147.39;59.52
3524;BME280;1776;53.330;11.498;2023-04-24T07:07:22;24827.38;;;-147.39;59.63
3524;BME280;1776;53.330;11.498;2023-04-24T07:09:48;24859.94;;;-147.39;59.55
3524;BME280;1776;53.330;11.498;2023-04-24T07:12:14;24866.03;;;-147.39;59.42
3524;BME280;1776;53.330;11.498;2023-04-24T07:14:39;24898.56;;;-147.39;59.43
3524;BME280;1776;53.330;11.498;2023-04-24T07:17:05;24839.59;;;-147.39;60.34
3524;BME280;1776;53.330;11.498;2023-04-24T07:19:31;24853.81;;;-147.39;60.12
3524;BME280;1776;53.330;11.498;2023-04-24T07:21:56;24841.63;;;-147.39;61.29
3524;BME280;1776;53.330;11.498;2023-04-24T07:24:23;24827.38;;;-147.39;60.99
3524;BME280;1776;53.330;11.498;2023-04-24T07:26:51;24725.69;;;-147.39;61.40
3524;BME280;1776;53.330;11.498;2023-04-24T07:29:16;24859.94;;;-147.39;61.48
3524;BME280;1776;53.330;11.498;2023-04-24T07:31:41;24868.06;;;-147.39;61.50
3524;BME280;1776;53.330;11.498;2023-04-24T07:34:07;24823.31;;;-147.39;61.39
3524;BME280;1776;53.330;11.498;2023-04-24T07:36:32;24861.97;;;-147.39;61.38
3524;BME280;1776;53.330;11.498;2023-04-24T07:38:57;24904.66;;;-147.39;61.21
3524;BME280;1776;53.330;11.498;2023-04-24T07:41:23;24892.47;;;-147.39;61.22
3524;BME280;1776;53.330;11.498;2023-04-24T07:43:49;24837.56;;;-147.39;60.44
3524;BME280;1776;53.330;11.498;2023-04-24T07:46:14;24900.59;;;-147.39;60.38
3524;BME280;1776;53.330;11.498;2023-04-24T07:48:40;24908.72;;;-147.39;59.78
3524;BME280;1776;53.330;11.498;2023-04-24T07:51:05;24949.41;;;-147.39;59.58
3524;BME280;1776;53.330;11.498;2023-04-24T07:53:30;24929.06;;;-147.39;59.12
3524;BME280;1776;53.330;11.498;2023-04-24T07:55:56;24916.88;;;-147.39;58.16
3524;BME280;1776;53.330;11.498;2023-04-24T07:58:21;24988.03;;;-147.39;58.19
3524;BME280;1776;53.330;11.498;2023-04-24T08:00:47;24979.91;;;-147.39;58.12
3524;BME280;1776;53.330;11.498;2023-04-24T08:03:12;24973.81;;;-147.39;57.71
3524;BME280;1776;53.330;11.498;2023-04-24T08:05:38;25059.22;;;-147.39;57.13
3524;BME280;1776;53.330;11.498;2023-04-24T08:08:03;24988.03;;;-147.39;56.76
3524;BME280;1776;53.330;11.498;2023-04-24T08:10:28;25040.94;;;-147.39;57.10
3524;BME280;1776;53.330;11.498;2023-04-24T08:12:54;25020.59;;;-147.39;55.91
3524;BME280;1776;53.330;11.498;2023-04-24T08:15:20;25004.31;;;-147.39;56.05
3524;BME280;1776;53.330;11.498;2023-04-24T08:17:45;25128.38;;;-147.39;55.29
3524;BME280;1776;53.330;11.498;2023-04-24T08:20:11;25095.84;;;-147.39;54.45
3524;BME280;1776;53.330;11.498;2023-04-24T08:22:43;25169.06;;;-147.39;53.50
3524;BME280;1776;53.330;11.498;2023-04-24T08:25:09;25116.19;;;-147.39;53.99
3524;BME280;1776;53.330;11.498;2023-04-24T08:27:35;25108.03;;;-147.39;53.99
3524;BME280;1776;53.330;11.498;2023-04-24T08:30:03;25091.78;;;-147.39;54.54
3524;BME280;1776;53.330;11.498;2023-04-24T08:32:28;25087.69;;;-147.39;55.10
3524;BME280;1776;53.330;11.498;2023-04-24T08:34:54;25049.06;;;-147.39;54.66
3524;BME280;1776;53.330;11.498;2023-04-24T08:37:21;25077.53;;;-147.39;54.51
3524;BME280;1776;53.330;11.498;2023-04-24T08:39:47;25112.09;;;-147.39;54.71
3524;BME280;1776;53.330;11.498;2023-04-24T08:42:12;25116.19;;;-147.39;54.56
3524;BME280;1776;53.330;11.498;2023-04-24T08:44:39;25120.25;;;-147.39;54.17
3524;BME280;1776;53.330;11.498;2023-04-24T08:47:06;25156.84;;;-147.39;54.06
3524;BME280;1776;53.330;11.498;2023-04-24T08:49:32;25112.09;;;-147.39;53.80
3524;BME280;1776;53.330;11.498;2023-04-24T08:51:58;25120.25;;;-147.39;53.81
3524;BME280;1776;53.330;11.498;2023-04-24T08:54:25;25132.44;;;-147.39;53.63
3524;BME280;1776;53.330;11.498;2023-04-24T08:56:51;25112.09;;;-147.39;53.51
3524;BME280;1776;53.330;11.498;2023-04-24T08:59:18;25164.97;;;-147.39;53.41
3524;BME280;1776;53.330;11.498;2023-04-24T09:01:45;25193.47;;;-147.39;52.74
3524;BME280;1776;53.330;11.498;2023-04-24T09:04:14;25191.44;;;-147.39;52.71
3524;BME280;1776;53.330;11.498;2023-04-24T09:06:40;25150.75;;;-147.39;53.04
3524;BME280;1776;53.330;11.498;2023-04-24T09:09:05;25169.06;;;-147.39;53.04
3524;BME280;1776;53.330;11.498;2023-04-24T09:11:31;25154.81;;;-147.39;52.99
3524;BME280;1776;53.330;11.498;2023-04-24T09:13:57;25217.88;;;-147.39;52.94
3524;BME280;1776;53.330;11.498;2023-04-24T09:16:25;25179.22;;;-147.39;53.32
3524;BME280;1776;53.330;11.498;2023-04-24T09:18:50;25197.53;;;-147.39;53.21
3524;BME280;1776;53.330;11.498;2023-04-24T09:21:16;25162.94;;;-147.39;53.34
3524;BME280;1776;53.330;11.498;2023-04-24T09:23:41;25175.16;;;-147.39;53.02
3524;BME280;1776;53.330;11.498;2023-04-24T09:26:09;25152.78;;;-147.39;52.95
3524;BME280;1776;53.330;11.498;2023-04-24T09:28:38;25177.19;;;-147.39;52.09
3524;BME280;1776;53.330;11.498;2023-04-24T09:33:30;25205.66;;;-147.39;50.89
3524;BME280;1776;53.330;11.498;2023-04-24T09:35:56;25179.22;;;-147.39;50.63
3524;BME280;1776;53.330;11.498;2023-04-24T09:38:37;25272.78;;;-147.39;50.19
3524;BME280;1776;53.330;11.498;2023-04-24T09:41:05;25201.59;;;-147.39;49.72
3524;BME280;1776;53.330;11.498;2023-04-24T09:43:31;25213.78;;;-147.39;50.04
3524;BME280;1776;53.330;11.498;2023-04-24T09:45:57;25201.59;;;-147.39;50.27
3524;BME280;1776;53.330;11.498;2023-04-24T09:48:33;25258.53;;;-147.39;50.29
3524;BME280;1776;53.330;11.498;2023-04-24T09:51:01;25223.97;;;-147.39;50.47
3524;BME280;1776;53.330;11.498;2023-04-24T09:53:27;25250.41;;;-147.39;49.99
3524;BME280;1776;53.330;11.498;2023-04-24T09:55:52;25268.72;;;-147.39;49.71
3524;BME280;1776;53.330;11.498;2023-04-24T09:58:23;25272.78;;;-147.39;49.60
3524;BME280;1776;53.330;11.498;2023-04-24T10:00:49;25301.25;;;-147.39;49.63
3524;BME280;1776;53.330;11.498;2023-04-24T10:03:17;25325.66;;;-147.39;49.22
3524;BME280;1776;53.330;11.498;2023-04-24T10:05:46;25266.69;;;-147.39;48.90
3524;BME280;1776;53.330;11.498;2023-04-24T10:08:12;25293.13;;;-147.39;48.40
3524;BME280;1776;53.330;11.498;2023-04-24T10:10:40;25291.09;;;-147.39;48.89
3524;BME280;1776;53.330;11.498;2023-04-24T10:13:07;25278.88;;;-147.39;48.94
3524;BME280;1776;53.330;11.498;2023-04-24T10:15:33;25274.81;;;-147.39;49.00
3524;BME280;1776;53.330;11.498;2023-04-24T10:17:59;25287.00;;;-147.39;49.06
3524;BME280;1776;53.330;11.498;2023-04-24T10:20:26;25274.81;;;-147.39;49.42
3524;BME280;1776;53.330;11.498;2023-04-24T10:22:53;25256.50;;;-147.39;49.16
3524;BME280;1776;53.330;11.498;2023-04-24T10:25:21;25189.38;;;-147.39;50.21
3524;BME280;1776;53.330;11.498;2023-04-24T10:27:47;25223.97;;;-147.39;50.95
3524;BME280;1776;53.330;11.498;2023-04-24T10:30:13;25232.09;;;-147.39;51.67
3524;BME280;1776;53.330;11.498;2023-04-24T10:32:39;25264.66;;;-147.39;51.35
3524;BME280;1776;53.330;11.498;2023-04-24T10:35:06;25197.53;;;-147.39;50.96
3524;BME280;1776;53.330;11.498;2023-04-24T10:37:37;25236.16;;;-147.39;50.85
3524;BME280;1776;53.330;11.498;2023-04-24T10:40:03;25228.03;;;-147.39;50.38
3524;BME280;1776;53.330;11.498;2023-04-24T10:42:29;25173.13;;;-147.39;50.61
3524;BME280;1776;53.330;11.498;2023-04-24T10:44:54;25171.09;;;-147.39;50.36
3524;BME280;1776;53.330;11.498;2023-04-24T10:47:20;25169.06;;;-147.39;50.57
3524;BME280;1776;53.330;11.498;2023-04-24T10:49:46;25103.97;;;-147.39;51.32
3524;BME280;1776;53.330;11.498;2023-04-24T10:52:11;25140.59;;;-147.39;51.22
3524;BME280;1776;53.330;11.498;2023-04-24T10:59:46;25128.38;;;-147.39;52.37
3524;BME280;1776;53.330;11.498;2023-04-24T11:02:14;25089.72;;;-147.39;52.86
3524;BME280;1776;53.330;11.498;2023-04-24T11:04:40;25108.03;;;-147.39;53.46
3524;BME280;1776;53.330;11.498;2023-04-24T11:07:08;25073.47;;;-147.39;54.71
3524;BME280;1776;53.330;11.498;2023-04-24T11:09:34;25093.81;;;-147.39;55.34
3524;BME280;1776;53.330;11.498;2023-04-24T11:12:06;25152.78;;;-147.39;55.40
3524;BME280;1776;53.330;11.498;2023-04-24T11:17:36;25103.97;;;-147.39;55.63
3524;BME280;1776;53.330;11.498;2023-04-24T11:20:05;25101.94;;;-147.39;54.81
3524;BME280;1776;53.330;11.498;2023-04-24T11:22:36;25091.78;;;-147.39;54.08
3524;BME280;1776;53.330;11.498;2023-04-24T11:25:05;25156.84;;;-147.39;53.21
3524;BME280;1776;53.330;11.498;2023-04-24T11:27:38;25160.91;;;-147.39;52.39
3524;BME280;1776;53.330;11.498;2023-04-24T11:30:05;25140.59;;;-147.39;52.27
3524;BME280;1776;53.330;11.498;2023-04-24T11:35:13;25268.72;;;-147.39;51.54
3524;BME280;1776;53.330;11.498;2023-04-24T11:37:42;25282.94;;;-147.39;50.42
3524;BME280;1776;53.330;11.498;2023-04-24T11:40:10;25352.09;;;-147.39;48.08
3524;BME280;1776;53.330;11.498;2023-04-24T11:42:40;25396.84;;;-147.39;47.16
3524;BME280;1776;53.330;11.498;2023-04-24T11:45:26;25449.72;;;-147.39;46.27
3524;BME280;1776;53.330;11.498;2023-04-24T11:47:52;25516.84;;;-147.39;45.72
3524;BME280;1776;53.330;11.498;2023-04-24T11:50:19;25553.47;;;-147.39;44.51
3524;BME280;1776;53.330;11.498;2023-04-24T11:52:46;25559.56;;;-147.39;44.57
3524;BME280;1776;53.330;11.498;2023-04-24T11:55:30;25567.69;;;-147.39;44.29
3524;BME280;1776;53.330;11.498;2023-04-24T11:57:59;25598.22;;;-147.39;42.96
3524;BME280;1776;53.330;11.498;2023-04-24T12:00:27;25630.75;;;-147.39;43.27
3524;BME280;1776;53.330;11.498;2023-04-24T12:03:04;25647.03;;;-147.39;42.60
3524;BME280;1776;53.330;11.498;2023-04-24T12:05:30;25653.13;;;-147.39;41.77
3524;BME280;1776;53.330;11.498;2023-04-24T12:07:59;25661.28;;;-147.39;41.93
3524;BME280;1776;53.330;11.498;2023-04-24T12:10:27;25624.66;;;-147.39;41.38
3524;BME280;1776;53.330;11.498;2023-04-24T12:12:53;25669.41;;;-147.39;41.87
3524;BME280;1776;53.330;11.498;2023-04-24T12:15:20;25602.28;;;-147.39;41.87
3524;BME280;1776;53.330;11.498;2023-04-24T12:17:46;25602.28;;;-147.39;42.34
3524;BME280;1776;53.330;11.498;2023-04-24T12:20:12;25579.91;;;-147.39;42.78
3524;BME280;1776;53.330;11.498;2023-04-24T12:22:50;25657.19;;;-147.39;41.80
3524;BME280;1776;53.330;11.498;2023-04-24T12:25:18;25710.09;;;-147.39;40.46
3524;BME280;1776;53.330;11.498;2023-04-24T12:27:45;25740.59;;;-147.39;40.42
3524;BME280;1776;53.330;11.498;2023-04-24T12:30:13;25687.72;;;-147.39;39.90
3524;BME280;1776;53.330;11.498;2023-04-24T12:32:43;25645.00;;;-147.39;39.92
3524;BME280;1776;53.330;11.498;2023-04-24T12:35:09;25691.78;;;-147.39;40.65
3524;BME280;1776;53.330;11.498;2023-04-24T12:37:34;25716.19;;;-147.39;40.06
3524;BME280;1776;53.330;11.498;2023-04-24T12:42:30;25744.66;;;-147.39;40.21
3524;BME280;1776;53.330;11.498;2023-04-24T12:45:05;25765.00;;;-147.39;39.09
3524;BME280;1776;53.330;11.498;2023-04-24T12:47:32;25765.00;;;-147.39;38.58
3524;BME280;1776;53.330;11.498;2023-04-24T12:49:58;25807.72;;;-147.39;38.93
3524;BME280;1776;53.330;11.498;2023-04-24T12:52:25;25828.06;;;-147.39;39.04
3524;BME280;1776;53.330;11.498;2023-04-24T12:54:52;25840.28;;;-147.39;39.17
3524;BME280;1776;53.330;11.498;2023-04-24T12:57:18;25828.06;;;-147.39;38.25
3524;BME280;1776;53.330;11.498;2023-04-24T12:59:43;25883.00;;;-147.39;38.82
3524;BME280;1776;53.330;11.498;2023-04-24T13:02:09;25858.59;;;-147.39;39.18